sensor_id;sensor_type;location;lat;lon;timestamp;pressure;altitude;pressure_sealevel;temperature;humidity
58668;BME280;59852;43.086;25.634;2023-05-11T00:00:01;99260.59;;;9.92;64.59
58668;BME280;59852;43.086;25.634;2023-05-11T00:02:26;99253.22;;;9.99;62.36
58668;BME280;59852;43.086;25.634;2023-05-11T00:04:52;99260.28;;;9.68;64.28
58668;BME280;59852;43.086;25.634;2023-05-11T00:07:18;99255.28;;;9.94;62.98
58668;BME280;59852;43.086;25.634;2023-05-11T00:09:43;99255.38;;;9.92;61.65
58668;BME280;59852;43.086;25.634;2023-05-11T00:12:08;99249.13;;;10.09;62.04
58668;BME280;59852;43.086;25.634;2023-05-11T00:14:34;99250.34;;;9.75;62.22
58668;BME280;59852;43.086;25.634;2023-05-11T00:16:59;99246.75;;;9.62;64.06
58668;BME280;59852;43.086;25.634;2023-05-11T00:19:24;99255.47;;;9.91;63.65
58668;BME280;59852;43.086;25.634;2023-05-11T00:21:50;99259.00;;;9.75;63.41
58668;BME280;59852;43.086;25.634;2023-05-11T00:24:15;99261.38;;;9.50;64.37
58668;BME280;59852;43.086;25.634;2023-05-11T00:26:41;99257.81;;;9.37;64.45
58668;BME280;59852;43.086;25.634;2023-05-11T00:29:06;99261.81;;;9.42;64.58
58668;BME280;59852;43.086;25.634;2023-05-11T00:31:31;99261.03;;;9.70;63.90
58668;BME280;59852;43.086;25.634;2023-05-11T00:33:57;99260.00;;;9.59;63.25
58668;BME280;59852;43.086;25.634;2023-05-11T00:36:22;99259.91;;;9.60;63.43
58668;BME280;59852;43.086;25.634;2023-05-11T00:38:48;99263.19;;;9.78;62.27
58668;BME280;59852;43.086;25.634;2023-05-11T00:41:14;99259.66;;;9.79;62.23
58668;BME280;59852;43.086;25.634;2023-05-11T00:43:39;99255.56;;;9.75;62.65
58668;BME280;59852;43.086;25.634;2023-05-11T00:46:05;99258.25;;;9.73;62.14
58668;BME280;59852;43.086;25.634;2023-05-11T00:48:30;99253.94;;;9.72;62.01
58668;BME280;59852;43.086;25.634;2023-05-11T00:50:57;99252.50;;;9.53;61.63
58668;BME280;59852;43.086;25.634;2023-05-11T00:53:23;99260.94;;;9.58;61.25
58668;BME280;59852;43.086;25.634;2023-05-11T00:55:49;99255.41;;;9.18;61.61
58668;BME280;59852;43.086;25.634;2023-05-11T00:58:14;99255.19;;;9.37;61.47
58668;BME280;59852;43.086;25.634;2023-05-11T01:00:40;99251.31;;;9.58;61.19
58668;BME280;59852;43.086;25.634;2023-05-11T01:03:06;99244.56;;;9.40;60.93
58668;BME280;59852;43.086;25.634;2023-05-11T01:05:40;99253.34;;;9.53;61.85
58668;BME280;59852;43.086;25.634;2023-05-11T01:08:17;99254.97;;;9.56;61.04
58668;BME280;59852;43.086;25.634;2023-05-11T01:11:01;99251.41;;;9.57;60.68
58668;BME280;59852;43.086;25.634;2023-05-11T01:13:32;99255.91;;;8.79;63.47
58668;BME280;59852;43.086;25.634;2023-05-11T01:15:59;99259.59;;;8.75;65.76
58668;BME280;59852;43.086;25.634;2023-05-11T01:18:31;99260.69;;;8.86;64.64
58668;BME280;59852;43.086;25.634;2023-05-11T01:20:59;99255.28;;;9.05;64.06
58668;BME280;59852;43.086;25.634;2023-05-11T01:31:05;99265.16;;;8.69;65.85
58668;BME280;59852;43.086;25.634;2023-05-11T01:33:33;99268.28;;;8.59;65.73
58668;BME280;59852;43.086;25.634;2023-05-11T01:36:02;99273.16;;;8.66;66.36
58668;BME280;59852;43.086;25.634;2023-05-11T01:38:29;99272.16;;;8.68;65.19
58668;BME280;59852;43.086;25.634;2023-05-11T01:40:56;99259.53;;;8.76;64.62
58668;BME280;59852;43.086;25.634;2023-05-11T01:43:25;99258.66;;;8.91;64.04
58668;BME280;59852;43.086;25.634;2023-05-11T01:45:52;99260.53;;;8.74;65.39
58668;BME280;59852;43.086;25.634;2023-05-11T01:48:21;99258.84;;;8.73;65.65
58668;BME280;59852;43.086;25.634;2023-05-11T01:50:47;99257.94;;;8.58;65.88
58668;BME280;59852;43.086;25.634;2023-05-11T01:53:13;99256.91;;;8.45;66.80
58668;BME280;59852;43.086;25.634;2023-05-11T01:55:40;99250.75;;;8.93;65.97
58668;BME280;59852;43.086;25.634;2023-05-11T01:58:05;99255.06;;;8.62;66.24
58668;BME280;59852;43.086;25.634;2023-05-11T02:00:32;99263.38;;;8.53;66.80
58668;BME280;59852;43.086;25.634;2023-05-11T02:02:58;99258.00;;;8.41;65.91
58668;BME280;59852;43.086;25.634;2023-05-11T02:05:25;99259.94;;;8.53;65.92
58668;BME280;59852;43.086;25.634;2023-05-11T02:07:52;99262.47;;;8.70;64.76
58668;BME280;59852;43.086;25.634;2023-05-11T02:10:18;99259.50;;;8.45;65.56
58668;BME280;59852;43.086;25.634;2023-05-11T02:12:45;99266.69;;;8.24;66.28
58668;BME280;59852;43.086;25.634;2023-05-11T02:15:12;99264.50;;;8.16;65.96
58668;BME280;59852;43.086;25.634;2023-05-11T02:17:40;99260.63;;;8.23;66.82
58668;BME280;59852;43.086;25.634;2023-05-11T02:20:07;99254.97;;;8.80;65.20
58668;BME280;59852;43.086;25.634;2023-05-11T02:22:34;99254.81;;;8.51;65.71
58668;BME280;59852;43.086;25.634;2023-05-11T02:25:00;99259.56;;;8.27;65.95
58668;BME280;59852;43.086;25.634;2023-05-11T02:27:25;99254.72;;;8.37;65.85
58668;BME280;59852;43.086;25.634;2023-05-11T02:29:51;99259.03;;;8.38;65.48
58668;BME280;59852;43.086;25.634;2023-05-11T02:32:17;99251.13;;;8.22;65.76
58668;BME280;59852;43.086;25.634;2023-05-11T02:34:48;99252.69;;;8.42;64.85
58668;BME280;59852;43.086;25.634;2023-05-11T02:37:19;99256.22;;;8.41;64.19
58668;BME280;59852;43.086;25.634;2023-05-11T02:39:47;99255.84;;;8.31;64.32
58668;BME280;59852;43.086;25.634;2023-05-11T02:42:20;99254.00;;;8.33;64.85
58668;BME280;59852;43.086;25.634;2023-05-11T02:44:49;99255.00;;;8.48;62.67
58668;BME280;59852;43.086;25.634;2023-05-11T02:47:18;99260.63;;;8.23;63.11
58668;BME280;59852;43.086;25.634;2023-05-11T02:49:45;99260.72;;;8.22;64.05
58668;BME280;59852;43.086;25.634;2023-05-11T02:52:13;99260.97;;;8.33;63.32
58668;BME280;59852;43.086;25.634;2023-05-11T02:54:40;99261.53;;;8.40;62.45
58668;BME280;59852;43.086;25.634;2023-05-11T02:57:05;99262.19;;;8.43;63.44
58668;BME280;59852;43.086;25.634;2023-05-11T02:59:31;99268.19;;;8.61;62.84
58668;BME280;59852;43.086;25.634;2023-05-11T03:01:56;99259.00;;;8.54;64.49
58668;BME280;59852;43.086;25.634;2023-05-11T03:04:22;99268.78;;;8.50;63.67
58668;BME280;59852;43.086;25.634;2023-05-11T03:06:48;99268.22;;;8.28;63.77
58668;BME280;59852;43.086;25.634;2023-05-11T03:09:13;99268.44;;;8.41;64.53
58668;BME280;59852;43.086;25.634;2023-05-11T03:11:39;99265.00;;;8.56;62.54
58668;BME280;59852;43.086;25.634;2023-05-11T03:14:04;99266.53;;;8.27;64.32
58668;BME280;59852;43.086;25.634;2023-05-11T03:16:30;99264.91;;;8.57;63.43
58668;BME280;59852;43.086;25.634;2023-05-11T03:18:56;99261.44;;;8.73;62.97
58668;BME280;59852;43.086;25.634;2023-05-11T03:21:22;99262.13;;;8.60;62.79
58668;BME280;59852;43.086;25.634;2023-05-11T03:23:48;99262.28;;;8.73;62.64
58668;BME280;59852;43.086;25.634;2023-05-11T03:26:14;99264.56;;;8.79;63.16
58668;BME280;59852;43.086;25.634;2023-05-11T03:28:40;99267.31;;;8.92;62.45
58668;BME280;59852;43.086;25.634;2023-05-11T03:31:07;99268.91;;;8.95;61.67
58668;BME280;59852;43.086;25.634;2023-05-11T03:33:33;99266.56;;;9.06;60.88
58668;BME280;59852;43.086;25.634;2023-05-11T03:35:58;99264.06;;;8.88;59.83
58668;BME280;59852;43.086;25.634;2023-05-11T03:38:24;99273.28;;;8.94;59.73
58668;BME280;59852;43.086;25.634;2023-05-11T03:40:51;99268.63;;;8.85;58.10
58668;BME280;59852;43.086;25.634;2023-05-11T03:43:18;99269.09;;;8.91;57.14
58668;BME280;59852;43.086;25.634;2023-05-11T03:45:45;99264.50;;;9.27;57.87
58668;BME280;59852;43.086;25.634;2023-05-11T03:48:11;99266.34;;;9.25;57.98
58668;BME280;59852;43.086;25.634;2023-05-11T03:50:38;99264.38;;;9.44;59.32
58668;BME280;59852;43.086;25.634;2023-05-11T03:53:04;99271.19;;;9.61;56.96
58668;BME280;59852;43.086;25.634;2023-05-11T03:55:31;99273.78;;;9.61;57.00
58668;BME280;59852;43.086;25.634;2023-05-11T03:57:56;99274.19;;;9.25;59.51
58668;BME280;59852;43.086;25.634;2023-05-11T04:00:21;99279.31;;;9.70;57.81
58668;BME280;59852;43.086;25.634;2023-05-11T04:02:47;99276.75;;;9.99;57.67
58668;BME280;59852;43.086;25.634;2023-05-11T04:05:12;99284.22;;;10.05;56.71
58668;BME280;59852;43.086;25.634;2023-05-11T04:07:38;99275.00;;;10.14;56.38
58668;BME280;59852;43.086;25.634;2023-05-11T04:10:03;99281.03;;;10.00;57.14
58668;BME280;59852;43.086;25.634;2023-05-11T04:12:29;99284.72;;;9.67;58.90
58668;BME280;59852;43.086;25.634;2023-05-11T04:14:54;99280.34;;;9.68;58.64
58668;BME280;59852;43.086;25.634;2023-05-11T04:17:20;99281.91;;;10.15;58.88
58668;BME280;59852;43.086;25.634;2023-05-11T04:19:45;99283.81;;;9.83;58.56
58668;BME280;59852;43.086;25.634;2023-05-11T04:22:10;99282.81;;;9.99;58.36
58668;BME280;59852;43.086;25.634;2023-05-11T04:24:36;99275.09;;;10.26;57.01
58668;BME280;59852;43.086;25.634;2023-05-11T04:27:02;99275.19;;;10.39;57.50
58668;BME280;59852;43.086;25.634;2023-05-11T04:29:28;99288.19;;;10.26;57.77
58668;BME280;59852;43.086;25.634;2023-05-11T04:31:53;99290.44;;;10.32;59.44
58668;BME280;59852;43.086;25.634;2023-05-11T04:34:18;99288.91;;;10.28;59.67
58668;BME280;59852;43.086;25.634;2023-05-11T04:36:45;99293.97;;;10.46;58.07
58668;BME280;59852;43.086;25.634;2023-05-11T04:39:11;99289.50;;;10.33;58.50
58668;BME280;59852;43.086;25.634;2023-05-11T04:41:36;99295.84;;;10.44;55.47
58668;BME280;59852;43.086;25.634;2023-05-11T04:44:01;99293.53;;;10.66;56.57
58668;BME280;59852;43.086;25.634;2023-05-11T04:46:27;99290.56;;;10.58;57.41
58668;BME280;59852;43.086;25.634;2023-05-11T04:48:52;99295.69;;;10.74;56.17
58668;BME280;59852;43.086;25.634;2023-05-11T04:51:18;99288.22;;;10.68;56.36
58668;BME280;59852;43.086;25.634;2023-05-11T04:53:43;99295.31;;;10.66;56.00
58668;BME280;59852;43.086;25.634;2023-05-11T04:56:08;99299.75;;;10.92;56.08
58668;BME280;59852;43.086;25.634;2023-05-11T04:58:34;99303.13;;;10.80;54.96
58668;BME280;59852;43.086;25.634;2023-05-11T05:00:59;99299.88;;;10.76;54.01
58668;BME280;59852;43.086;25.634;2023-05-11T05:03:24;99297.72;;;11.10;52.67
58668;BME280;59852;43.086;25.634;2023-05-11T05:05:50;99300.03;;;11.41;54.00
58668;BME280;59852;43.086;25.634;2023-05-11T05:08:15;99294.59;;;11.44;53.55
58668;BME280;59852;43.086;25.634;2023-05-11T05:10:42;99293.66;;;11.45;52.31
58668;BME280;59852;43.086;25.634;2023-05-11T05:13:08;99289.81;;;11.24;51.19
58668;BME280;59852;43.086;25.634;2023-05-11T05:15:33;99298.63;;;10.96;52.25
58668;BME280;59852;43.086;25.634;2023-05-11T05:17:58;99294.78;;;11.02;52.88
58668;BME280;59852;43.086;25.634;2023-05-11T05:20:24;99298.72;;;10.95;51.46
58668;BME280;59852;43.086;25.634;2023-05-11T05:22:50;99304.06;;;10.79;52.72
58668;BME280;59852;43.086;25.634;2023-05-11T05:25:15;99304.16;;;10.91;53.73
58668;BME280;59852;43.086;25.634;2023-05-11T05:27:41;99296.84;;;10.97;53.07
58668;BME280;59852;43.086;25.634;2023-05-11T05:30:06;99300.34;;;11.10;51.71
58668;BME280;59852;43.086;25.634;2023-05-11T05:32:32;99292.22;;;11.27;51.60
58668;BME280;59852;43.086;25.634;2023-05-11T05:34:57;99295.63;;;11.42;49.97
58668;BME280;59852;43.086;25.634;2023-05-11T05:37:23;99293.16;;;11.26;51.51
58668;BME280;59852;43.086;25.634;2023-05-11T05:39:48;99288.31;;;11.20;51.53
58668;BME280;59852;43.086;25.634;2023-05-11T05:42:13;99288.16;;;11.23;51.14
58668;BME280;59852;43.086;25.634;2023-05-11T05:44:39;99295.78;;;11.26;50.74
58668;BME280;59852;43.086;25.634;2023-05-11T05:47:04;99301.06;;;11.39;51.17
58668;BME280;59852;43.086;25.634;2023-05-11T05:49:30;99298.25;;;11.42;50.51
58668;BME280;59852;43.086;25.634;2023-05-11T05:51:55;99302.38;;;11.59;51.05
58668;BME280;59852;43.086;25.634;2023-05-11T05:54:20;99297.03;;;11.60;50.98
58668;BME280;59852;43.086;25.634;2023-05-11T05:56:46;99297.34;;;11.68;49.86
58668;BME280;59852;43.086;25.634;2023-05-11T05:59:12;99302.66;;;11.41;51.45
58668;BME280;59852;43.086;25.634;2023-05-11T06:01:38;99296.22;;;11.72;51.41
58668;BME280;59852;43.086;25.634;2023-05-11T06:04:10;99298.50;;;11.64;51.06
58668;BME280;59852;43.086;25.634;2023-05-11T06:06:35;99297.81;;;11.88;51.66
58668;BME280;59852;43.086;25.634;2023-05-11T06:09:00;99304.00;;;11.87;49.86
58668;BME280;59852;43.086;25.634;2023-05-11T06:11:26;99293.25;;;11.64;51.86
58668;BME280;59852;43.086;25.634;2023-05-11T06:13:51;99303.66;;;11.78;52.22
58668;BME280;59852;43.086;25.634;2023-05-11T06:16:17;99300.66;;;11.97;52.63
58668;BME280;59852;43.086;25.634;2023-05-11T06:18:42;99311.78;;;12.14;52.90
58668;BME280;59852;43.086;25.634;2023-05-11T06:21:07;99304.81;;;12.38;52.61
58668;BME280;59852;43.086;25.634;2023-05-11T06:23:33;99291.53;;;12.03;51.45
58668;BME280;59852;43.086;25.634;2023-05-11T06:25:58;99307.56;;;12.37;52.50
58668;BME280;59852;43.086;25.634;2023-05-11T06:28:23;99303.66;;;12.55;52.15
58668;BME280;59852;43.086;25.634;2023-05-11T06:30:49;99300.34;;;12.40;53.60
58668;BME280;59852;43.086;25.634;2023-05-11T06:33:14;99303.56;;;12.44;51.50
58668;BME280;59852;43.086;25.634;2023-05-11T06:35:40;99305.59;;;12.77;52.74
58668;BME280;59852;43.086;25.634;2023-05-11T06:38:05;99305.75;;;12.62;51.33
58668;BME280;59852;43.086;25.634;2023-05-11T06:40:31;99301.47;;;12.85;52.43
58668;BME280;59852;43.086;25.634;2023-05-11T06:42:56;99305.16;;;12.83;50.61
58668;BME280;59852;43.086;25.634;2023-05-11T06:45:21;99301.53;;;12.97;50.60
58668;BME280;59852;43.086;25.634;2023-05-11T06:47:47;99291.16;;;12.95;51.05
58668;BME280;59852;43.086;25.634;2023-05-11T06:50:12;99308.84;;;12.80;51.36
58668;BME280;59852;43.086;25.634;2023-05-11T06:52:38;99299.75;;;12.97;50.76
58668;BME280;59852;43.086;25.634;2023-05-11T06:55:03;99301.28;;;13.12;50.33
58668;BME280;59852;43.086;25.634;2023-05-11T06:57:28;99300.00;;;13.18;48.72
58668;BME280;59852;43.086;25.634;2023-05-11T06:59:54;99302.31;;;13.23;49.24
58668;BME280;59852;43.086;25.634;2023-05-11T07:02:19;99308.03;;;13.04;48.92
58668;BME280;59852;43.086;25.634;2023-05-11T07:04:44;99305.75;;;12.99;48.31
58668;BME280;59852;43.086;25.634;2023-05-11T07:07:10;99297.25;;;13.43;48.86
58668;BME280;59852;43.086;25.634;2023-05-11T07:09:36;99301.25;;;13.49;48.09
58668;BME280;59852;43.086;25.634;2023-05-11T07:12:01;99304.44;;;13.41;48.20
58668;BME280;59852;43.086;25.634;2023-05-11T07:14:27;99291.03;;;13.68;48.48
58668;BME280;59852;43.086;25.634;2023-05-11T07:16:52;99299.59;;;13.59;47.98
58668;BME280;59852;43.086;25.634;2023-05-11T07:19:17;99300.88;;;13.89;48.62
58668;BME280;59852;43.086;25.634;2023-05-11T07:21:43;99295.22;;;13.82;46.82
58668;BME280;59852;43.086;25.634;2023-05-11T07:24:08;99291.78;;;14.04;46.54
58668;BME280;59852;43.086;25.634;2023-05-11T07:26:34;99297.19;;;14.02;47.29
58668;BME280;59852;43.086;25.634;2023-05-11T07:28:59;99298.84;;;14.03;46.39
58668;BME280;59852;43.086;25.634;2023-05-11T07:31:25;99290.75;;;14.06;46.29
58668;BME280;59852;43.086;25.634;2023-05-11T07:33:50;99286.31;;;14.07;46.59
58668;BME280;59852;43.086;25.634;2023-05-11T07:36:16;99287.69;;;14.46;46.40
58668;BME280;59852;43.086;25.634;2023-05-11T07:38:41;99276.75;;;14.40;45.03
58668;BME280;59852;43.086;25.634;2023-05-11T07:41:06;99291.47;;;14.53;47.00
58668;BME280;59852;43.086;25.634;2023-05-11T07:43:32;99287.69;;;14.46;45.79
58668;BME280;59852;43.086;25.634;2023-05-11T07:45:57;99286.09;;;14.66;45.18
58668;BME280;59852;43.086;25.634;2023-05-11T07:48:22;99281.81;;;14.65;43.89
58668;BME280;59852;43.086;25.634;2023-05-11T07:50:48;99277.91;;;14.91;43.97
58668;BME280;59852;43.086;25.634;2023-05-11T07:53:16;99280.31;;;14.83;44.44
58668;BME280;59852;43.086;25.634;2023-05-11T07:55:41;99283.78;;;14.73;43.96
58668;BME280;59852;43.086;25.634;2023-05-11T07:58:06;99284.38;;;14.87;43.73
58668;BME280;59852;43.086;25.634;2023-05-11T08:00:32;99288.63;;;15.11;43.00
58668;BME280;59852;43.086;25.634;2023-05-11T08:02:58;99286.97;;;14.99;42.47
58668;BME280;59852;43.086;25.634;2023-05-11T08:05:23;99288.28;;;15.04;42.44
58668;BME280;59852;43.086;25.634;2023-05-11T08:07:49;99290.06;;;15.15;41.48
58668;BME280;59852;43.086;25.634;2023-05-11T08:10:14;99283.72;;;15.38;42.49
58668;BME280;59852;43.086;25.634;2023-05-11T08:12:39;99280.06;;;15.30;41.96
58668;BME280;59852;43.086;25.634;2023-05-11T08:15:05;99273.09;;;15.29;41.19
58668;BME280;59852;43.086;25.634;2023-05-11T08:17:30;99280.88;;;15.30;41.08
58668;BME280;59852;43.086;25.634;2023-05-11T08:19:56;99271.25;;;15.40;40.43
58668;BME280;59852;43.086;25.634;2023-05-11T08:22:21;99270.84;;;15.56;40.30
58668;BME280;59852;43.086;25.634;2023-05-11T08:24:47;99267.41;;;15.44;41.72
58668;BME280;59852;43.086;25.634;2023-05-11T08:27:13;99271.34;;;15.50;42.88
58668;BME280;59852;43.086;25.634;2023-05-11T08:29:39;99270.09;;;15.86;41.90
58668;BME280;59852;43.086;25.634;2023-05-11T08:32:06;99268.97;;;15.89;40.67
58668;BME280;59852;43.086;25.634;2023-05-11T08:34:31;99266.91;;;15.92;39.95
58668;BME280;59852;43.086;25.634;2023-05-11T08:36:57;99269.81;;;15.89;39.58
58668;BME280;59852;43.086;25.634;2023-05-11T08:39:25;99267.63;;;15.94;39.48
58668;BME280;59852;43.086;25.634;2023-05-11T08:41:51;99256.44;;;15.81;38.41
58668;BME280;59852;43.086;25.634;2023-05-11T08:44:17;99260.41;;;15.96;38.12
58668;BME280;59852;43.086;25.634;2023-05-11T08:46:44;99258.22;;;16.32;39.38
58668;BME280;59852;43.086;25.634;2023-05-11T08:49:11;99246.59;;;16.44;37.36
58668;BME280;59852;43.086;25.634;2023-05-11T08:51:37;99257.19;;;16.54;38.12
58668;BME280;59852;43.086;25.634;2023-05-11T08:54:02;99255.63;;;16.51;38.24
58668;BME280;59852;43.086;25.634;2023-05-11T08:56:30;99248.13;;;16.47;36.56
58668;BME280;59852;43.086;25.634;2023-05-11T08:58:56;99252.00;;;16.73;38.14
58668;BME280;59852;43.086;25.634;2023-05-11T09:01:21;99254.56;;;16.63;38.58
58668;BME280;59852;43.086;25.634;2023-05-11T09:03:47;99244.63;;;16.77;39.07
58668;BME280;59852;43.086;25.634;2023-05-11T09:06:13;99252.63;;;16.66;37.59
58668;BME280;59852;43.086;25.634;2023-05-11T09:08:38;99239.75;;;16.72;35.62
58668;BME280;59852;43.086;25.634;2023-05-11T09:11:04;99242.00;;;17.06;37.25
58668;BME280;59852;43.086;25.634;2023-05-11T09:13:30;99232.00;;;17.09;36.59
58668;BME280;59852;43.086;25.634;2023-05-11T09:15:56;99233.25;;;17.44;37.39
58668;BME280;59852;43.086;25.634;2023-05-11T09:18:21;99247.31;;;17.06;35.93
58668;BME280;59852;43.086;25.634;2023-05-11T09:20:47;99239.06;;;16.80;35.91
58668;BME280;59852;43.086;25.634;2023-05-11T09:23:17;99236.72;;;17.15;36.32
58668;BME280;59852;43.086;25.634;2023-05-11T09:25:43;99228.91;;;16.75;35.00
58668;BME280;59852;43.086;25.634;2023-05-11T09:28:11;99239.34;;;16.86;36.64
58668;BME280;59852;43.086;25.634;2023-05-11T09:30:37;99232.81;;;17.00;36.90
58668;BME280;59852;43.086;25.634;2023-05-11T09:33:02;99227.00;;;17.06;36.58
58668;BME280;59852;43.086;25.634;2023-05-11T09:35:31;99218.91;;;17.08;36.51
58668;BME280;59852;43.086;25.634;2023-05-11T09:38:07;99225.72;;;17.30;36.23
58668;BME280;59852;43.086;25.634;2023-05-11T09:40:36;99217.09;;;17.08;35.27
58668;BME280;59852;43.086;25.634;2023-05-11T09:43:03;99209.03;;;17.39;36.44
58668;BME280;59852;43.086;25.634;2023-05-11T09:45:42;99215.13;;;17.49;36.03
58668;BME280;59852;43.086;25.634;2023-05-11T09:50:40;99224.72;;;17.69;35.10
58668;BME280;59852;43.086;25.634;2023-05-11T09:53:05;99218.88;;;17.56;35.70
58668;BME280;59852;43.086;25.634;2023-05-11T09:55:30;99208.72;;;17.61;35.39
58668;BME280;59852;43.086;25.634;2023-05-11T09:57:56;99200.50;;;17.74;35.58
58668;BME280;59852;43.086;25.634;2023-05-11T10:00:22;99202.09;;;17.94;35.96
58668;BME280;59852;43.086;25.634;2023-05-11T10:03:05;99196.19;;;17.73;36.80
58668;BME280;59852;43.086;25.634;2023-05-11T10:05:32;99197.28;;;17.80;35.75
58668;BME280;59852;43.086;25.634;2023-05-11T10:08:04;99196.72;;;17.76;36.48
58668;BME280;59852;43.086;25.634;2023-05-11T10:10:31;99199.28;;;17.01;38.57
58668;BME280;59852;43.086;25.634;2023-05-11T10:12:57;99192.00;;;16.45;37.26
58668;BME280;59852;43.086;25.634;2023-05-11T10:15:22;99202.81;;;16.51;38.60
58668;BME280;59852;43.086;25.634;2023-05-11T10:17:55;99200.91;;;16.53;38.94
58668;BME280;59852;43.086;25.634;2023-05-11T10:20:22;99188.53;;;16.54;37.91
58668;BME280;59852;43.086;25.634;2023-05-11T10:22:49;99184.69;;;17.35;38.39
58668;BME280;59852;43.086;25.634;2023-05-11T10:25:17;99180.66;;;17.41;36.37
58668;BME280;59852;43.086;25.634;2023-05-11T10:27:42;99177.97;;;17.70;36.32
58668;BME280;59852;43.086;25.634;2023-05-11T10:30:09;99170.81;;;17.90;36.21
58668;BME280;59852;43.086;25.634;2023-05-11T10:32:34;99181.59;;;17.40;37.57
58668;BME280;59852;43.086;25.634;2023-05-11T10:35:01;99177.66;;;17.63;38.51
58668;BME280;59852;43.086;25.634;2023-05-11T10:37:27;99181.69;;;17.77;38.12
58668;BME280;59852;43.086;25.634;2023-05-11T10:39:53;99182.44;;;17.97;36.77
58668;BME280;59852;43.086;25.634;2023-05-11T10:42:28;99190.50;;;17.48;38.60
58668;BME280;59852;43.086;25.634;2023-05-11T10:45:17;99173.81;;;17.29;39.79
58668;BME280;59852;43.086;25.634;2023-05-11T10:50:55;99175.78;;;17.93;37.54
58668;BME280;59852;43.086;25.634;2023-05-11T10:56:02;99181.16;;;17.54;37.09
58668;BME280;59852;43.086;25.634;2023-05-11T11:03:34;99177.47;;;18.21;37.02
58668;BME280;59852;43.086;25.634;2023-05-11T11:06:01;99184.31;;;17.67;38.89
58668;BME280;59852;43.086;25.634;2023-05-11T11:08:27;99180.56;;;18.62;37.33
58668;BME280;59852;43.086;25.634;2023-05-11T11:10:52;99180.31;;;18.65;36.59
58668;BME280;59852;43.086;25.634;2023-05-11T11:13:17;99180.09;;;17.94;37.45
58668;BME280;59852;43.086;25.634;2023-05-11T11:20:45;99172.09;;;17.76;37.67
58668;BME280;59852;43.086;25.634;2023-05-11T11:23:39;99173.00;;;17.28;37.89
58668;BME280;59852;43.086;25.634;2023-05-11T11:25:56;99168.59;;;17.66;38.68
58668;BME280;59852;43.086;25.634;2023-05-11T11:28:21;99173.91;;;17.75;37.37
58668;BME280;59852;43.086;25.634;2023-05-11T11:30:47;99170.38;;;17.85;39.60
58668;BME280;59852;43.086;25.634;2023-05-11T11:38:04;99160.84;;;17.55;39.54
58668;BME280;59852;43.086;25.634;2023-05-11T11:40:49;99153.75;;;18.29;37.59
58668;BME280;59852;43.086;25.634;2023-05-11T11:43:27;99156.22;;;18.58;37.66
58668;BME280;59852;43.086;25.634;2023-05-11T11:50:47;99155.56;;;17.45;39.04
58668;BME280;59852;43.086;25.634;2023-05-11T11:53:56;99148.09;;;17.31;38.83
58668;BME280;59852;43.086;25.634;2023-05-11T11:55:58;99152.31;;;18.08;38.87
58668;BME280;59852;43.086;25.634;2023-05-11T12:01:21;99148.66;;;17.34;37.94
58668;BME280;59852;43.086;25.634;2023-05-11T12:06:39;99151.56;;;17.41;39.59
58668;BME280;59852;43.086;25.634;2023-05-11T12:09:07;99142.97;;;17.10;38.51
58668;BME280;59852;43.086;25.634;2023-05-11T12:11:32;99133.50;;;17.27;38.95
58668;BME280;59852;43.086;25.634;2023-05-11T12:13:58;99134.94;;;17.02;39.41
58668;BME280;59852;43.086;25.634;2023-05-11T12:16:24;99139.66;;;17.64;38.41
58668;BME280;59852;43.086;25.634;2023-05-11T12:18:53;99134.81;;;17.50;39.39
58668;BME280;59852;43.086;25.634;2023-05-11T12:21:19;99133.22;;;17.76;39.10
58668;BME280;59852;43.086;25.634;2023-05-11T12:23:54;99136.25;;;17.35;38.63
58668;BME280;59852;43.086;25.634;2023-05-11T12:26:20;99138.75;;;17.36;38.10
58668;BME280;59852;43.086;25.634;2023-05-11T12:28:46;99137.63;;;17.39;38.14
58668;BME280;59852;43.086;25.634;2023-05-11T12:31:14;99139.22;;;17.22;39.23
58668;BME280;59852;43.086;25.634;2023-05-11T12:33:47;99140.19;;;17.21;39.16
58668;BME280;59852;43.086;25.634;2023-05-11T12:36:13;99139.94;;;17.05;39.65
58668;BME280;59852;43.086;25.634;2023-05-11T12:38:46;99131.56;;;17.09;39.31
58668;BME280;59852;43.086;25.634;2023-05-11T12:41:18;99130.31;;;17.13;38.48
58668;BME280;59852;43.086;25.634;2023-05-11T12:43:46;99125.25;;;17.30;38.54
58668;BME280;59852;43.086;25.634;2023-05-11T12:46:12;99112.22;;;17.09;39.00
58668;BME280;59852;43.086;25.634;2023-05-11T12:48:38;99112.16;;;17.38;39.58
58668;BME280;59852;43.086;25.634;2023-05-11T12:51:03;99107.81;;;17.93;39.34
58668;BME280;59852;43.086;25.634;2023-05-11T12:53:33;99101.41;;;17.49;38.85
58668;BME280;59852;43.086;25.634;2023-05-11T12:55:59;99110.34;;;17.38;37.89
58668;BME280;59852;43.086;25.634;2023-05-11T12:58:24;99105.34;;;17.45;37.98
58668;BME280;59852;43.086;25.634;2023-05-11T13:00:50;99098.75;;;17.49;38.46
58668;BME280;59852;43.086;25.634;2023-05-11T13:03:35;99096.47;;;17.27;38.56
58668;BME280;59852;43.086;25.634;2023-05-11T13:06:07;99099.16;;;18.01;38.85
58668;BME280;59852;43.086;25.634;2023-05-11T13:08:36;99091.09;;;18.20;36.98
58668;BME280;59852;43.086;25.634;2023-05-11T13:13:46;99090.72;;;18.51;37.14
58668;BME280;59852;43.086;25.634;2023-05-11T13:16:21;99097.47;;;18.00;36.89
58668;BME280;59852;43.086;25.634;2023-05-11T13:18:56;99091.78;;;17.95;37.38
58668;BME280;59852;43.086;25.634;2023-05-11T13:21:22;99086.78;;;18.19;36.42
58668;BME280;59852;43.086;25.634;2023-05-11T13:23:48;99098.34;;;17.54;37.71
58668;BME280;59852;43.086;25.634;2023-05-11T13:26:13;99091.53;;;17.51;38.91
58668;BME280;59852;43.086;25.634;2023-05-11T13:28:45;99082.91;;;17.86;37.42
58668;BME280;59852;43.086;25.634;2023-05-11T13:31:11;99092.97;;;17.83;38.56
58668;BME280;59852;43.086;25.634;2023-05-11T13:33:36;99095.06;;;17.79;37.02